Flight Track Log - Related Links

Times and Time Zones

All times are in EDT time to prevent confusion due to time zone crossing. See the SWA2353 flight status page for this flight to view local times or setup timezone preferences in your user account.

Time Position Orientation Groundspeed Altitude Reporting Facility
EDT Latitude Longitude Course Direction KTS MPH feet Rate Location/Type
Mon 07:32:11 PM 39.8833 -75.2167 57° Northeast 151 174 1,000  Level Philadelphia TRACON
Mon 07:33:00 PM 39.9000 -75.1833 57° Northeast 213 245 3,200 3,633 Climbing Philadelphia TRACON
Mon 07:34:00 PM 39.9333 -75.1333 49° Northeast 248 285 7,600 2,400 Climbing Philadelphia TRACON
Mon 07:35:00 PM 40.0167 -75.1500 351° North 274 315 8,000 200 Climbing Philadelphia TRACON
Mon 07:36:00 PM 40.0667 -75.2333 308° West 285 328 8,000 1,109 Level Philadelphia TRACON
Mon 07:38:04 PM 40.1492 -75.4200 300° West 296 341 11,400 1,630 Climbing New Center
Mon 07:39:04 PM 40.1994 -75.5183 304° West 342 394 13,000 800 Climbing New Center
Mon 07:40:04 PM 40.2736 -75.6378 309° West 381 438 13,000 1,100 Level New Center
Mon 07:41:04 PM 40.3442 -75.7436 311° West 387 445 15,200 1,983 Climbing New Center
Mon 07:42:05 PM 40.4167 -75.8525 311° West 397 457 17,000 2,066 Climbing New Center
Mon 07:43:06 PM 40.4550 -75.9781 292° West 403 464 19,400 2,672 Climbing New Center
Mon 07:44:04 PM 40.4756 -76.1269 280° West 403 464 22,300 2,975 Climbing New Center
Mon 07:45:05 PM 40.4975 -76.2814 281° West 416 479 25,300 2,705 Climbing New Center
Mon 07:46:06 PM 40.5214 -76.4389 281° West 436 502 27,800 1,388 Climbing New Center
Mon 07:47:06 PM 40.5450 -76.5967 281° West 443 510 28,100 1,525 Climbing New Center
Mon 07:48:04 PM 40.5644 -76.7514 279° West 438 504 30,800 2,622 Climbing New Center
Mon 07:49:05 PM 40.5878 -76.9064 281° West 433 498 33,300 2,164 Climbing New Center
Mon 07:50:06 PM 40.6128 -77.0619 282° West 433 498 35,200 775 Climbing New Center
Mon 07:52:34 PM 40.6683 -77.4542 281° West 426 490 36,000 231 Climbing Cleveland Center
Mon 07:53:34 PM 40.6869 -77.6039 279° West 426 490 36,000  Level Cleveland Center
Mon 07:54:34 PM 40.7075 -77.7536 280° West 426 490 36,000  Level Cleveland Center
Mon 07:55:34 PM 40.7278 -77.9033 280° West 426 490 36,000  Level Cleveland Center
Mon 07:56:34 PM 40.7481 -78.0533 280° West 426 490 36,000  Level Cleveland Center
Mon 07:57:34 PM 40.7681 -78.2089 280° West 426 490 36,000  Level Cleveland Center
Mon 07:58:34 PM 40.7878 -78.3589 280° West 426 490 36,000  Level Cleveland Center
Mon 07:59:34 PM 40.8072 -78.5119 280° West 426 490 36,000  Level Cleveland Center
Mon 08:00:34 PM 40.8286 -78.6650 281° West 426 490 36,000  Level Cleveland Center
Mon 08:01:34 PM 40.8478 -78.8181 279° West 426 490 36,000  Level Cleveland Center
Mon 08:02:34 PM 40.8664 -78.9522 280° West 426 490 36,000  Level Cleveland Center
Mon 08:03:34 PM 40.8853 -79.1056 279° West 426 490 36,000  Level Cleveland Center
Mon 08:04:34 PM 40.9058 -79.2561 280° West 426 490 36,000  Level Cleveland Center
Mon 08:05:34 PM 40.9222 -79.4097 278° West 426 490 36,000  Level Cleveland Center
Mon 08:06:34 PM 40.9422 -79.5606 280° West 426 490 36,000  Level Cleveland Center
Mon 08:07:34 PM 40.9581 -79.7089 278° West 426 490 36,000  Level Cleveland Center
Mon 08:08:34 PM 40.9758 -79.8569 279° West 421 484 36,000  Level Cleveland Center
Mon 08:09:34 PM 40.9956 -80.0081 280° West 421 484 36,000  Level Cleveland Center
Mon 08:10:34 PM 41.0128 -80.1567 279° West 421 484 36,000  Level Cleveland Center
Mon 08:11:34 PM 41.0300 -80.3106 278° West 421 484 36,000  Level Cleveland Center
Mon 08:12:34 PM 41.0447 -80.4647 277° West 426 490 36,000  Level Cleveland Center
Mon 08:13:34 PM 41.0614 -80.6133 279° West 426 490 36,000  Level Cleveland Center
Mon 08:14:34 PM 41.0803 -80.7622 280° West 421 484 36,000  Level Cleveland Center
Mon 08:15:34 PM 41.0964 -80.9164 278° West 421 484 36,000  Level Cleveland Center
Mon 08:16:34 PM 41.1106 -81.0792 277° West 416 479 36,000  Level Cleveland Center
Mon 08:17:34 PM 41.1264 -81.2308 278° West 416 479 36,000  Level Cleveland Center
Mon 08:18:34 PM 41.1422 -81.3800 278° West 416 479 36,000  Level Cleveland Center
Mon 08:19:34 PM 41.1578 -81.5097 279° West 409 471 36,000  Level Cleveland Center
Mon 08:20:34 PM 41.1711 -81.6589 277° West 409 471 36,000  Level Cleveland Center
Mon 08:21:34 PM 41.1864 -81.8081 278° West 409 471 36,000  Level Cleveland Center
Mon 08:22:34 PM 41.2011 -81.9575 278° West 409 471 36,000  Level Cleveland Center
Mon 08:23:34 PM 41.2161 -82.1069 278° West 409 471 36,000  Level Cleveland Center
Mon 08:24:34 PM 41.2286 -82.2589 276° West 416 479 36,000  Level Cleveland Center
Mon 08:25:34 PM 41.2428 -82.4139 277° West 405 466 36,000  Level Cleveland Center
Mon 08:26:34 PM 41.2550 -82.5525 277° West 389 448 36,000  Level Cleveland Center
Mon 08:27:33 PM 41.2672 -82.6908 277° West 389 448 36,000  Level Cleveland Center
Mon 08:28:34 PM 41.2811 -82.8297 278° West 384 442 36,000  Level Cleveland Center
Mon 08:29:34 PM 41.2931 -82.9708 276° West 384 442 36,000  Level Cleveland Center
Mon 08:30:34 PM 41.3047 -83.1069 277° West 384 442 36,000  Level Cleveland Center
Mon 08:31:34 PM 41.3161 -83.2456 276° West 384 442 36,000  Level Cleveland Center
Mon 08:32:34 PM 41.3275 -83.3814 276° West 384 442 36,000 -250 Level Cleveland Center
Mon 08:33:34 PM 41.3406 -83.5203 277° West 384 442 35,500 -700 Descending Cleveland Center
Mon 08:34:34 PM 41.3517 -83.6592 276° West 384 442 34,600 -750 Descending Cleveland Center
Mon 08:35:34 PM 41.3622 -83.8036 276° West 390 449 34,000 -234 Descending Cleveland Center
Mon 08:37:08 PM 41.3836 -84.0181 278° West 386 444 34,000 -346 Level Chicago Center
Mon 08:38:10 PM 41.3942 -84.1597 276° West 387 445 33,100 -871 Descending Chicago Center
Mon 08:39:12 PM 41.4056 -84.3017 276° West 387 445 32,200 -968 Descending Chicago Center
Mon 08:40:14 PM 41.4156 -84.4372 276° West 373 429 31,100 -1,056 Descending Chicago Center
Mon 08:41:17 PM 41.4281 -84.5958 276° West 360 414 30,000 -528 Descending Chicago Center
Mon 08:42:19 PM 41.4367 -84.7283 275° West 356 410 30,000  Level Chicago Center
Mon 08:43:21 PM 41.4469 -84.8600 276° West 359 413 30,000  Level Chicago Center
Mon 08:44:23 PM 41.4572 -85.0036 276° West 384 442 30,000  Level Chicago Center
Mon 08:45:25 PM 41.4678 -85.1506 276° West 395 455 30,000 -1,355 Level Chicago Center
Mon 08:46:27 PM 41.4772 -85.2967 275° West 393 452 27,200 -2,710 Descending Chicago Center
Mon 08:47:29 PM 41.4861 -85.4436 275° West 391 450 24,400 -1,984 Descending Chicago Center
Mon 08:48:31 PM 41.4964 -85.5814 276° West 367 422 23,100 -1,210 Descending Chicago Center
Mon 08:49:33 PM 41.5064 -85.7442 275° West 364 419 21,900 -1,161 Descending Chicago Center
Mon 08:50:35 PM 41.5156 -85.8794 275° West 364 419 20,700 -1,742 Descending Chicago Center
Mon 08:51:37 PM 41.5239 -86.0103 275° West 356 410 18,300 -2,323 Descending Chicago Center
Mon 08:52:39 PM 41.5244 -86.1378 270° West 348 400 15,900 -2,274 Descending Chicago Center
Mon 08:53:41 PM 41.5228 -86.2592 269° West 331 381 13,600 -2,226 Descending Chicago Center
Mon 08:54:43 PM 41.5233 -86.3758 270° West 317 365 11,300 -1,694 Descending Chicago Center
Mon 08:55:45 PM 41.5222 -86.4897 269° West 310 357 10,100 -581 Descending Chicago Center
Mon 08:56:47 PM 41.5211 -86.6253 269° West 307 353 10,100  Level Chicago Center
Mon 08:57:49 PM 41.5194 -86.7417 269° West 307 353 10,100  Level Chicago Center
Mon 08:58:51 PM 41.5197 -86.8528 270° West 302 348 10,100 -242 Level Chicago Center
Mon 08:59:53 PM 41.5178 -86.9475 268° West 269 310 9,600 -1,113 Descending Chicago Center
Mon 09:00:55 PM 41.5164 -87.0483 269° West 267 307 7,800 -1,577 Descending Chicago Center
Mon 09:02:10 PM 41.5167 -87.1833 270° West 261 300 6,000 -800 Descending Chicago TRACON
Mon 09:03:10 PM 41.5333 -87.2833 283° West 260 299 6,000  Level Chicago TRACON
Mon 09:04:16 PM 41.5500 -87.3667 285° West 219 252 6,000  Level Chicago TRACON
Mon 09:05:03 PM 41.5564 -87.4225 279° West 235 270 6,000 -440 Level Chicago Center
Mon 09:06:05 PM 41.5986 -87.4869 311° West 236 272 5,200 -823 Descending Chicago Center
Mon 09:07:07 PM 41.6403 -87.5506 311° West 234 269 4,300 -919 Descending Chicago Center
Mon 09:08:09 PM 41.6969 -87.5725 344° North 229 264 3,300 -823 Descending Chicago Center
Mon 09:09:11 PM 41.7497 -87.5575 12° North 230 265 2,600 -537 Descending Chicago Center
Mon 09:10:12 PM 41.7875 -87.6108 314° West 210 242 2,200 -316 Descending Chicago Center
Mon 09:11:05 PM 41.8167 -87.6667 305° West 196 226 2,000 -372 Descending Chicago TRACON
Mon 09:12:05 PM 41.8167 -87.7167 270° West 137 158 1,500 -500 Descending Chicago TRACON

Login

Don't have an account? Register now (free) for customized features, flight alerts, and more!